createdAt,value
2023-04-15T00:01:41.423Z,7.90
2023-04-15T00:04:43.126Z,7.88
2023-04-15T00:07:46.990Z,7.88
2023-04-15T00:10:49.324Z,7.93
2023-04-15T00:13:51.247Z,7.80
2023-04-15T00:16:56.273Z,6.17
2023-04-15T00:19:59.895Z,7.05
2023-04-15T00:23:04.146Z,7.25
2023-04-15T00:26:06.102Z,7.68
2023-04-15T00:29:08.307Z,7.55
2023-04-15T00:32:09.934Z,7.57
2023-04-15T00:35:12.273Z,7.05
2023-04-15T00:38:13.873Z,8.52
2023-04-15T00:41:15.655Z,6.88
2023-04-15T00:44:19.026Z,7.35
2023-04-15T00:47:21.777Z,7.43
2023-04-15T00:50:23.455Z,8.60
2023-04-15T00:53:25.056Z,8.18
2023-04-15T00:56:28.833Z,8.30
2023-04-15T00:59:31.624Z,7.63
2023-04-15T01:02:33.598Z,7.67
2023-04-15T01:05:36.353Z,6.57
2023-04-15T01:08:38.044Z,8.50
2023-04-15T01:11:39.949Z,6.50
2023-04-15T01:14:41.528Z,6.95
2023-04-15T01:17:43.518Z,6.47
2023-04-15T01:20:45.183Z,6.35
2023-04-15T01:23:48.478Z,7.53
2023-04-15T01:26:50.482Z,5.93
2023-04-15T01:29:52.840Z,7.50
2023-04-15T01:32:54.756Z,6.83
2023-04-15T01:35:56.678Z,5.25
2023-04-15T01:38:58.801Z,6.35
2023-04-15T01:42:00.623Z,6.82
2023-04-15T01:45:02.746Z,6.03
2023-04-15T01:48:04.505Z,7.37
2023-04-15T01:51:06.219Z,7.50
2023-04-15T01:54:07.962Z,6.97
2023-04-15T01:57:09.949Z,6.80
2023-04-15T02:00:11.908Z,5.93
2023-04-15T02:03:13.815Z,7.27
2023-04-15T02:06:15.700Z,7.50
2023-04-15T02:09:17.385Z,6.88
2023-04-15T02:12:19.037Z,7.45
2023-04-15T02:15:20.859Z,7.47
2023-04-15T02:18:22.559Z,6.97
2023-04-15T02:21:24.161Z,6.05
2023-04-15T02:24:26.745Z,6.75
2023-04-15T02:27:28.997Z,8.02
2023-04-15T02:30:30.596Z,6.38
2023-04-15T02:33:32.548Z,6.93
2023-04-15T02:36:34.726Z,5.90
2023-04-15T02:39:36.777Z,6.50
2023-04-15T02:42:39.634Z,6.07
2023-04-15T02:45:41.304Z,6.30
2023-04-15T02:48:43.023Z,6.17
2023-04-15T02:51:49.494Z,6.20
2023-04-15T02:54:51.261Z,6.60
2023-04-15T02:57:52.954Z,5.93
2023-04-15T03:00:54.623Z,6.45
2023-04-15T03:03:56.431Z,4.93
2023-04-15T03:07:00.718Z,6.32
2023-04-15T03:10:02.425Z,6.10
2023-04-15T03:13:04.094Z,6.53
2023-04-15T03:16:06.206Z,6.85
2023-04-15T03:19:07.915Z,6.07
2023-04-15T03:22:09.494Z,7.53
2023-04-15T03:25:11.509Z,7.88
2023-04-15T03:28:13.174Z,8.45
2023-04-15T03:31:16.081Z,5.82
2023-04-15T03:34:17.748Z,8.57
2023-04-15T03:37:19.524Z,8.40
2023-04-15T03:40:21.750Z,6.47
2023-04-15T03:43:23.642Z,7.75
2023-04-15T03:46:25.773Z,7.60
2023-04-15T03:49:27.569Z,6.40
2023-04-15T03:52:29.162Z,7.75
2023-04-15T03:55:30.997Z,7.18
2023-04-15T03:58:32.809Z,7.28
2023-04-15T04:01:34.495Z,7.53
2023-04-15T04:04:36.421Z,8.83
2023-04-15T04:07:38.280Z,7.50
2023-04-15T04:10:40.359Z,6.43
2023-04-15T04:13:42.062Z,6.47
2023-04-15T04:16:43.752Z,6.07
2023-04-15T04:19:45.418Z,7.00
2023-04-15T04:22:47.082Z,6.22
2023-04-15T04:25:48.840Z,6.95
2023-04-15T04:28:50.776Z,6.60
2023-04-15T04:31:52.556Z,7.40
2023-04-15T04:34:54.213Z,6.93
2023-04-15T04:37:56.585Z,6.53
2023-04-15T04:40:58.310Z,6.05
2023-04-15T04:44:00.143Z,7.10
2023-04-15T04:47:01.851Z,6.20
2023-04-15T04:50:03.688Z,7.37
2023-04-15T04:53:05.361Z,6.85
2023-04-15T04:56:07.101Z,7.70
2023-04-15T04:59:09.418Z,7.47
2023-04-15T05:02:11.092Z,6.90
2023-04-15T05:05:13.477Z,7.50
2023-04-15T05:08:16.166Z,7.32
2023-04-15T05:11:17.815Z,8.57
2023-04-15T05:14:19.758Z,7.00
2023-04-15T05:17:22.240Z,8.20
2023-04-15T05:20:23.924Z,7.37
2023-04-15T05:23:25.821Z,5.97
2023-04-15T05:26:27.628Z,6.32
2023-04-15T05:29:29.291Z,6.65
2023-04-15T05:32:31.276Z,7.55
2023-04-15T05:35:32.993Z,6.00
2023-04-15T05:38:34.646Z,5.93
2023-04-15T05:41:36.555Z,7.40
2023-04-15T05:44:38.284Z,6.72
2023-04-15T05:47:40.677Z,6.45
2023-04-15T05:50:42.463Z,8.30
2023-04-15T05:53:44.152Z,7.18
2023-04-15T05:56:46.020Z,7.22
2023-04-15T05:59:47.644Z,5.97
2023-04-15T06:02:49.903Z,6.63
2023-04-15T06:05:51.630Z,6.90
2023-04-15T06:08:53.637Z,6.03
2023-04-15T06:11:56.189Z,6.70
2023-04-15T06:14:59.584Z,6.18
2023-04-15T06:18:02.007Z,6.03
2023-04-15T06:21:03.851Z,6.20
2023-04-15T06:24:06.150Z,6.65
2023-04-15T06:27:08.096Z,6.10
2023-04-15T06:30:10.153Z,5.65
2023-04-15T06:33:11.774Z,7.30
2023-04-15T06:36:13.589Z,6.83
2023-04-15T06:39:15.450Z,6.18
2023-04-15T06:42:17.109Z,6.45
2023-04-15T06:45:18.880Z,5.68
2023-04-15T06:48:20.510Z,5.75
2023-04-15T06:51:22.528Z,6.27
2023-04-15T06:54:24.349Z,5.93
2023-04-15T06:57:26.406Z,6.35
2023-04-15T07:00:28.775Z,6.70
2023-04-15T07:03:32.651Z,6.43
2023-04-15T07:06:35.647Z,5.13
2023-04-15T07:09:37.385Z,5.70
2023-04-15T07:12:39.148Z,5.80
2023-04-15T07:15:40.855Z,5.60
2023-04-15T07:18:42.460Z,5.50
2023-04-15T07:21:44.228Z,6.07
2023-04-15T07:24:46.713Z,4.95
2023-04-15T07:27:48.521Z,5.13
2023-04-15T07:30:50.457Z,4.65
2023-04-15T07:33:52.087Z,5.78
2023-04-15T07:36:53.722Z,5.00
2023-04-15T07:39:55.911Z,4.70
2023-04-15T07:42:58.552Z,4.85
2023-04-15T07:46:00.293Z,4.75
2023-04-15T07:49:02.200Z,4.15
2023-04-15T07:52:04.326Z,4.10
2023-04-15T07:55:09.746Z,4.22
2023-04-15T07:58:11.634Z,4.80
2023-04-15T08:01:13.529Z,4.60
2023-04-15T08:04:15.855Z,4.82
2023-04-15T08:07:18.167Z,5.13
2023-04-15T08:10:19.763Z,4.60
2023-04-15T08:13:21.793Z,4.60
2023-04-15T08:16:25.408Z,4.63
2023-04-15T08:19:27.259Z,3.35
2023-04-15T08:22:28.891Z,3.67
2023-04-15T08:25:30.524Z,5.18
2023-04-15T08:28:32.387Z,5.18
2023-04-15T08:31:34.058Z,4.60
2023-04-15T08:34:35.956Z,5.40
2023-04-15T08:37:37.584Z,4.10
2023-04-15T08:40:45.652Z,5.85
2023-04-15T08:43:53.741Z,5.97
2023-04-15T08:46:57.222Z,7.85
2023-04-15T08:49:59.829Z,6.40
2023-04-15T08:53:01.661Z,7.30
2023-04-15T08:56:07.593Z,6.50
2023-04-15T08:59:09.973Z,5.75
2023-04-15T09:02:12.336Z,5.40
2023-04-15T09:05:14.116Z,5.43
2023-04-15T09:08:15.752Z,5.20
2023-04-15T09:11:20.009Z,5.75
2023-04-15T09:14:21.918Z,4.88
2023-04-15T09:17:25.514Z,5.22
2023-04-15T09:20:27.478Z,6.35
2023-04-15T09:23:29.362Z,5.57
2023-04-15T09:26:36.181Z,7.25
2023-04-15T09:29:37.835Z,5.93
2023-04-15T09:32:52.017Z,5.70
2023-04-15T09:35:59.320Z,5.18
2023-04-15T09:39:01.106Z,5.77
2023-04-15T09:42:08.937Z,5.47
2023-04-15T09:45:13.446Z,4.47
2023-04-15T09:48:27.158Z,5.57
2023-04-15T09:51:35.914Z,5.95
2023-04-15T09:54:38.807Z,6.40
2023-04-15T09:57:41.807Z,5.20
2023-04-15T10:00:44.091Z,5.00
2023-04-15T10:03:46.867Z,4.28
2023-04-15T10:06:48.664Z,2.92
2023-04-15T10:09:50.432Z,2.60
2023-04-15T10:12:53.436Z,2.13
2023-04-15T10:15:57.985Z,2.65
2023-04-15T10:19:02.254Z,2.55
2023-04-15T10:22:04.520Z,2.85
2023-04-15T10:25:07.164Z,3.47
2023-04-15T10:28:09.618Z,2.95
2023-04-15T10:31:15.643Z,3.58
2023-04-15T10:34:18.676Z,2.58
2023-04-15T10:37:33.787Z,2.33
2023-04-15T10:40:35.493Z,2.77
2023-04-15T10:43:37.472Z,1.83
2023-04-15T10:46:41.566Z,2.15
2023-04-15T10:49:46.095Z,3.03
2023-04-15T10:52:51.703Z,2.65
2023-04-15T10:55:53.432Z,3.20
2023-04-15T10:58:55.024Z,2.63
2023-04-15T11:02:07.721Z,2.25
2023-04-15T11:05:17.043Z,2.30
2023-04-15T11:08:19.207Z,1.92
2023-04-15T11:11:20.900Z,1.77
2023-04-15T11:14:22.932Z,3.90
2023-04-15T11:17:31.072Z,4.78
2023-04-15T11:20:32.984Z,3.78
2023-04-15T11:23:40.203Z,2.85
2023-04-15T11:26:41.873Z,3.03
2023-04-15T11:29:44.261Z,2.60
2023-04-15T11:32:45.916Z,1.77
2023-04-15T11:35:48.129Z,3.10
2023-04-15T11:38:49.750Z,2.28
2023-04-15T11:41:51.374Z,1.97
2023-04-15T11:45:07.557Z,1.60
2023-04-15T11:48:11.116Z,1.77
2023-04-15T11:51:13.976Z,1.80
2023-04-15T11:54:19.261Z,1.60
2023-04-15T11:57:20.905Z,1.83
2023-04-15T12:00:22.655Z,2.25
2023-04-15T12:03:36.433Z,1.73
2023-04-15T12:06:39.421Z,1.60
2023-04-15T12:09:41.323Z,2.80
2023-04-15T12:12:42.991Z,3.30
2023-04-15T12:15:44.845Z,3.22
2023-04-15T12:18:56.133Z,2.22
2023-04-15T12:22:18.143Z,2.47
2023-04-15T12:25:19.877Z,2.33
2023-04-15T12:28:21.517Z,1.83
2023-04-15T12:31:23.827Z,1.80
2023-04-15T12:34:31.836Z,2.10
2023-04-15T12:37:33.438Z,2.33
2023-04-15T12:40:35.143Z,2.33
2023-04-15T12:43:37.029Z,3.23
2023-04-15T12:46:39.018Z,2.40
2023-04-15T12:49:41.221Z,2.88
2023-04-15T12:52:43.113Z,2.28
2023-04-15T12:55:44.991Z,2.83
2023-04-15T12:58:46.656Z,1.83
2023-04-15T13:01:49.032Z,2.63
2023-04-15T13:04:51.126Z,2.47
2023-04-15T13:07:52.946Z,2.75
2023-04-15T13:10:54.548Z,2.10
2023-04-15T13:13:56.992Z,2.17
2023-04-15T13:16:59.441Z,2.80
2023-04-15T13:20:01.459Z,3.25
2023-04-15T13:23:03.185Z,3.83
2023-04-15T13:26:04.877Z,3.95
2023-04-15T13:29:06.794Z,4.93
2023-04-15T13:32:08.454Z,4.22
2023-04-15T13:35:10.405Z,3.25
2023-04-15T13:38:12.051Z,2.85
2023-04-15T13:41:13.641Z,3.50
2023-04-15T13:44:15.377Z,4.40
2023-04-15T13:47:17.720Z,3.17
2023-04-15T13:50:19.465Z,3.60
2023-04-15T13:53:21.371Z,3.90
2023-04-15T13:56:36.101Z,3.63
2023-04-15T13:59:37.752Z,2.90
2023-04-15T14:02:40.696Z,3.33
2023-04-15T14:05:42.471Z,2.60
2023-04-15T14:08:44.090Z,2.72
2023-04-15T14:11:45.765Z,3.38
2023-04-15T14:14:47.331Z,3.43
2023-04-15T14:17:49.092Z,3.53
2023-04-15T14:20:50.869Z,3.22
2023-04-15T14:23:52.536Z,2.38
2023-04-15T14:26:54.386Z,2.90
2023-04-15T14:29:57.724Z,2.93
2023-04-15T14:32:59.434Z,1.63
2023-04-15T14:36:01.187Z,3.42
2023-04-15T14:39:04.242Z,3.50
2023-04-15T14:42:06.151Z,2.67
2023-04-15T14:45:08.487Z,2.03
2023-04-15T14:48:10.389Z,2.75
2023-04-15T14:51:12.092Z,2.03
2023-04-15T14:54:13.756Z,2.50
2023-04-15T14:57:15.381Z,2.58
2023-04-15T15:00:17.201Z,2.63
2023-04-15T15:03:19.016Z,2.60
2023-04-15T15:06:22.697Z,3.00
2023-04-15T15:09:25.108Z,2.88
2023-04-15T15:12:26.794Z,3.25
2023-04-15T15:15:29.246Z,2.70
2023-04-15T15:18:31.239Z,2.55
2023-04-15T15:21:33.182Z,3.08
2023-04-15T15:24:34.807Z,3.72
2023-04-15T15:27:38.212Z,4.72
2023-04-15T15:30:40.108Z,1.57
2023-04-15T15:33:41.765Z,5.15
2023-04-15T15:36:43.438Z,1.48
2023-04-15T15:39:45.082Z,1.88
2023-04-15T15:42:49.874Z,1.73
2023-04-15T15:45:52.955Z,1.70
2023-04-15T15:48:54.966Z,1.95
2023-04-15T15:51:57.009Z,1.20
2023-04-15T15:54:58.802Z,2.50
2023-04-15T15:58:00.490Z,2.35
2023-04-15T16:01:02.255Z,2.20
2023-04-15T16:04:04.086Z,3.38
2023-04-15T16:07:05.957Z,3.70
2023-04-15T16:10:08.083Z,1.95
2023-04-15T16:13:10.813Z,3.50
2023-04-15T16:16:12.678Z,4.03
2023-04-15T16:19:15.130Z,3.05
2023-04-15T16:22:17.092Z,2.47
2023-04-15T16:25:18.820Z,7.80
2023-04-15T16:28:26.333Z,5.93
2023-04-15T16:31:28.358Z,6.23
2023-04-15T16:34:30.222Z,6.07
2023-04-15T16:37:33.254Z,5.97
2023-04-15T16:40:35.042Z,8.15
2023-04-15T16:43:36.661Z,6.88
2023-04-15T16:46:40.801Z,6.17
2023-04-15T16:49:42.814Z,6.57
2023-04-15T16:52:44.537Z,6.18
2023-04-15T16:55:46.361Z,5.15
2023-04-15T16:58:48.226Z,4.60
2023-04-15T17:01:49.974Z,5.13
2023-04-15T17:04:51.745Z,4.65
2023-04-15T17:07:53.354Z,7.15
2023-04-15T17:10:55.301Z,8.90
2023-04-15T17:13:56.912Z,8.18
2023-04-15T17:16:58.715Z,6.23
2023-04-15T17:20:01.474Z,8.30
2023-04-15T17:23:04.120Z,8.07
2023-04-15T17:26:05.995Z,7.57
2023-04-15T17:29:08.112Z,6.63
2023-04-15T17:32:10.925Z,7.17
2023-04-15T17:35:12.580Z,6.28
2023-04-15T17:38:14.235Z,6.13
2023-04-15T17:41:16.352Z,6.38
2023-04-15T17:44:19.227Z,6.10
2023-04-15T17:47:20.919Z,6.30
2023-04-15T17:50:22.503Z,6.53
2023-04-15T17:53:24.120Z,7.20
2023-04-15T17:56:27.921Z,7.40
2023-04-15T17:59:30.683Z,8.07
2023-04-15T18:02:33.896Z,8.23
2023-04-15T18:05:41.369Z,10.65
2023-04-15T18:08:44.216Z,10.15
2023-04-15T18:11:47.436Z,10.82
2023-04-15T18:14:49.062Z,10.27
2023-04-15T18:17:50.731Z,11.50
2023-04-15T18:20:52.537Z,10.85
2023-04-15T18:23:54.207Z,11.57
2023-04-15T18:26:56.506Z,11.95
2023-04-15T18:29:58.321Z,13.30
2023-04-15T18:33:00.074Z,12.67
2023-04-15T18:36:02.664Z,11.38
2023-04-15T18:39:05.562Z,10.02
2023-04-15T18:42:07.450Z,10.25
2023-04-15T18:45:09.309Z,8.50
2023-04-15T18:48:11.209Z,7.80
2023-04-15T18:51:14.181Z,7.90
2023-04-15T18:54:15.984Z,7.97
2023-04-15T18:57:23.643Z,7.50
2023-04-15T19:00:36.495Z,8.93
2023-04-15T19:03:38.156Z,9.27
2023-04-15T19:06:39.874Z,10.38
2023-04-15T19:09:42.369Z,11.07
2023-04-15T19:12:43.982Z,11.35
2023-04-15T19:15:45.594Z,11.27
2023-04-15T19:18:47.247Z,10.37
2023-04-15T19:21:50.322Z,11.38
2023-04-15T19:24:52.149Z,11.18
2023-04-15T19:27:53.824Z,11.10
2023-04-15T19:30:55.610Z,10.68
2023-04-15T19:33:57.188Z,10.43
2023-04-15T19:36:58.884Z,9.38
2023-04-15T19:40:00.486Z,12.45
2023-04-15T19:43:02.085Z,22.75
2023-04-15T19:46:03.788Z,42.67
2023-04-15T19:49:05.747Z,33.10
2023-04-15T19:52:07.542Z,24.40
2023-04-15T19:55:09.311Z,36.35
2023-04-15T19:58:11.371Z,39.42
2023-04-15T20:01:13.127Z,37.08
2023-04-15T20:04:14.943Z,35.40
2023-04-15T20:07:16.635Z,24.02
2023-04-15T20:10:22.435Z,25.25
2023-04-15T20:13:24.096Z,20.85
2023-04-15T20:16:27.362Z,19.60
2023-04-15T20:19:29.032Z,18.03
2023-04-15T20:22:31.917Z,17.63
2023-04-15T20:25:33.572Z,15.18
2023-04-15T20:28:35.218Z,16.85
2023-04-15T20:31:37.455Z,17.83
2023-04-15T20:34:40.536Z,27.20
2023-04-15T20:37:44.040Z,18.55
2023-04-15T20:40:46.014Z,15.38
2023-04-15T20:43:47.785Z,15.88
2023-04-15T20:46:50.436Z,18.23
2023-04-15T20:49:52.251Z,10.53
2023-04-15T20:52:53.950Z,10.07
2023-04-15T20:55:55.660Z,13.13
2023-04-15T20:58:57.843Z,14.95
2023-04-15T21:01:59.562Z,11.90
2023-04-15T21:05:01.220Z,12.33
2023-04-15T21:08:02.852Z,13.93
2023-04-15T21:11:04.441Z,11.98
2023-04-15T21:14:08.056Z,13.57
2023-04-15T21:17:11.329Z,12.45
2023-04-15T21:20:13.378Z,12.40
2023-04-15T21:23:14.965Z,11.25
2023-04-15T21:26:16.579Z,10.85
2023-04-15T21:29:18.384Z,8.32
2023-04-15T21:32:20.101Z,8.88
2023-04-15T21:35:21.834Z,6.73
2023-04-15T21:38:23.666Z,6.85
2023-04-15T21:41:25.894Z,7.30
2023-04-15T21:44:27.664Z,7.18
2023-04-15T21:47:29.321Z,6.97
2023-04-15T21:50:31.328Z,7.00
2023-04-15T21:53:33.035Z,7.82
2023-04-15T21:56:34.843Z,6.95
2023-04-15T21:59:36.467Z,6.38
2023-04-15T22:02:38.518Z,8.18
2023-04-15T22:05:43.077Z,7.20
2023-04-15T22:09:11.358Z,6.72
2023-04-15T22:12:07.633Z,7.32
2023-04-15T22:15:09.541Z,8.00
2023-04-15T22:18:12.675Z,8.75
2023-04-15T22:21:14.534Z,7.60
2023-04-15T22:24:33.946Z,10.27
2023-04-15T22:27:37.736Z,12.50
2023-04-15T22:30:41.113Z,12.45
2023-04-15T22:33:42.698Z,13.27
2023-04-15T22:36:44.291Z,14.93
2023-04-15T22:39:46.074Z,15.10
2023-04-15T22:42:47.653Z,11.90
2023-04-15T22:45:53.135Z,10.68
2023-04-15T22:48:54.994Z,12.00
2023-04-15T22:51:56.785Z,12.90
2023-04-15T22:54:59.148Z,11.40
2023-04-15T22:58:00.835Z,9.30
2023-04-15T23:01:02.475Z,11.60
2023-04-15T23:04:05.277Z,12.52
2023-04-15T23:07:12.630Z,9.07
2023-04-15T23:10:14.268Z,9.15
2023-04-15T23:13:15.924Z,9.40
2023-04-15T23:16:17.631Z,10.57
2023-04-15T23:19:19.261Z,10.43
2023-04-15T23:22:21.040Z,9.57
2023-04-15T23:25:22.830Z,11.23
2023-04-15T23:28:24.475Z,12.65
2023-04-15T23:31:26.316Z,11.63
2023-04-15T23:34:27.954Z,10.45
2023-04-15T23:37:31.454Z,9.80
2023-04-15T23:40:33.201Z,10.95
2023-04-15T23:43:34.937Z,11.60
2023-04-15T23:46:36.670Z,9.80
2023-04-15T23:49:40.874Z,10.52
2023-04-15T23:52:42.651Z,9.53
2023-04-15T23:55:44.308Z,11.85
2023-04-15T23:58:46.137Z,10.93
